Conditions Actuelle
Brumeux



Pression
30.44 (inHG) - 1030.92 (mb)
Visibilité

5.0 (km) - 3.1 (miles)
   Température
-4  °C
Température
-5  °C
Point de Rosée
93  %
 Humidité
   Vitesse du Vent
2  km/h
1  kts
1  mph
0.4  m/s
   Direction du Vent
N
45°
E
90°
135°
S
180°
225°
O
270°
315°
 140°

Sud Est
   Données D'Aéroport
LFBG
Cognac-Châteaubernard (BA 709) Air Base
Metar :LFBG 300330Z AUTO 14001KT 5000 BR NSC M04/M05 Q1031
30-01-2023 04:30
   Informations de métar brut
Le METAR brut est le format le plus courant au monde pour la transmission de données météorologiques d'observation. Il est hautement standardisé par l’Organisation de l’aviation civile internationale (OACI), ce qui lui permet d’être compris dans la plupart des pays du monde.
   API Information
Données fournies par
https://www.checkwx.com/weather/LFBG

Météo aéronautique fournissant des rapports météorologiques METAR, TAF, AIRMET, SIGMET et OUTLOOK
   © Info
CSS/SVG/PHP les scripts ont été développés pa weather34.com pour une utilisation dans le modèle weather34 © 2015-2023

Informations sur le guide fournies par Metar-Wikipedia